Main page
METAR-TAF:

METAR-TAF

Airports :

Gloucestershire Airport

Gloucester, England

latitude: 51-54N, longitude: 002-10W, elevation: 29 m

Current weather observation

The report was made 14 hours and 35 minutes ago, at 17:20 UTC
Wind 3 kt from the North/Northeast
Temperature 10°C
Humidity 62%
Pressure 1032 hPa
Visibility 10 km or more
Few clouds at a height of 4000 ft

METAR: EGBJ 231720Z 03003KT 9999 FEW040 10/03 Q1032

Time: 07:55 (07:55 UTC)

Forecast

The report was made 17 hours and 58 minutes ago, at 13:57 UTC
Forecast valid from 23 at 15 UTC to 23 at 19 UTC
Wind 6 kt from the Northeast
Visibility 10 km or more
Few clouds at a height of 3500 ft

TAF: EGBJ 231357Z 2315/2319 04006KT 9999 FEW035

Weather observations and forecasts of more than 4000 airports (METAR and TAF reports).

The available stations are represented by yellow and red dots on the map.

Hover mouse over dot to see the name of the station.

Then click to see weather observations and forecasts.

To change the map : click on the green buttons with a black cross to zoom in, on the green button with a dash to zoom out, or on the green arrows for adjacent maps.


METAR-TAF: